sensor_id;sensor_type;location;lat;lon;timestamp;P1;durP1;ratioP1;P2;durP2;ratioP2
73321;SDS011;61549;37.044;22.128;2023-03-19T00:00:06;9.27;;;7.03;;
73321;SDS011;61549;37.044;22.128;2023-03-19T00:02:33;7.95;;;5.78;;
73321;SDS011;61549;37.044;22.128;2023-03-19T00:05:00;9.38;;;5.93;;
73321;SDS011;61549;37.044;22.128;2023-03-19T00:07:25;8.38;;;6.63;;
73321;SDS011;61549;37.044;22.128;2023-03-19T00:09:51;10.20;;;7.00;;
73321;SDS011;61549;37.044;22.128;2023-03-19T00:12:17;11.38;;;8.48;;
73321;SDS011;61549;37.044;22.128;2023-03-19T00:14:43;15.10;;;10.25;;
73321;SDS011;61549;37.044;22.128;2023-03-19T00:17:09;18.23;;;13.35;;
73321;SDS011;61549;37.044;22.128;2023-03-19T00:19:35;13.35;;;9.73;;
73321;SDS011;61549;37.044;22.128;2023-03-19T00:22:01;8.55;;;6.68;;
73321;SDS011;61549;37.044;22.128;2023-03-19T00:24:27;8.93;;;7.30;;
73321;SDS011;61549;37.044;22.128;2023-03-19T00:26:53;7.40;;;6.43;;
73321;SDS011;61549;37.044;22.128;2023-03-19T00:29:20;7.97;;;6.20;;
73321;SDS011;61549;37.044;22.128;2023-03-19T00:31:48;7.85;;;6.65;;
73321;SDS011;61549;37.044;22.128;2023-03-19T00:34:14;8.15;;;5.97;;
73321;SDS011;61549;37.044;22.128;2023-03-19T00:36:43;10.13;;;6.55;;
73321;SDS011;61549;37.044;22.128;2023-03-19T00:39:09;10.18;;;7.10;;
73321;SDS011;61549;37.044;22.128;2023-03-19T00:41:35;7.45;;;5.65;;
73321;SDS011;61549;37.044;22.128;2023-03-19T00:44:02;7.47;;;5.40;;
73321;SDS011;61549;37.044;22.128;2023-03-19T00:46:29;6.38;;;5.50;;
73321;SDS011;61549;37.044;22.128;2023-03-19T00:48:55;7.68;;;5.63;;
73321;SDS011;61549;37.044;22.128;2023-03-19T00:51:23;7.57;;;5.85;;
73321;SDS011;61549;37.044;22.128;2023-03-19T00:53:49;9.80;;;6.05;;
73321;SDS011;61549;37.044;22.128;2023-03-19T00:56:16;7.20;;;5.22;;
73321;SDS011;61549;37.044;22.128;2023-03-19T00:58:43;6.13;;;5.28;;
73321;SDS011;61549;37.044;22.128;2023-03-19T01:01:11;6.88;;;5.70;;
73321;SDS011;61549;37.044;22.128;2023-03-19T01:03:40;7.75;;;5.20;;
73321;SDS011;61549;37.044;22.128;2023-03-19T01:06:06;7.38;;;5.40;;
73321;SDS011;61549;37.044;22.128;2023-03-19T01:08:32;9.45;;;6.25;;
73321;SDS011;61549;37.044;22.128;2023-03-19T01:11:11;7.70;;;5.40;;
73321;SDS011;61549;37.044;22.128;2023-03-19T01:13:39;7.15;;;5.35;;
73321;SDS011;61549;37.044;22.128;2023-03-19T01:16:06;6.80;;;4.90;;
73321;SDS011;61549;37.044;22.128;2023-03-19T01:18:32;6.63;;;5.22;;
73321;SDS011;61549;37.044;22.128;2023-03-19T01:20:58;6.13;;;5.25;;
73321;SDS011;61549;37.044;22.128;2023-03-19T01:23:24;6.47;;;5.28;;
73321;SDS011;61549;37.044;22.128;2023-03-19T01:25:50;5.93;;;5.32;;
73321;SDS011;61549;37.044;22.128;2023-03-19T01:28:16;7.25;;;5.00;;
73321;SDS011;61549;37.044;22.128;2023-03-19T01:30:43;7.03;;;5.53;;
73321;SDS011;61549;37.044;22.128;2023-03-19T01:33:11;5.95;;;5.28;;
73321;SDS011;61549;37.044;22.128;2023-03-19T01:35:37;7.25;;;5.53;;
73321;SDS011;61549;37.044;22.128;2023-03-19T01:38:03;6.32;;;4.72;;
73321;SDS011;61549;37.044;22.128;2023-03-19T01:40:29;6.78;;;4.80;;
73321;SDS011;61549;37.044;22.128;2023-03-19T01:43:19;8.00;;;5.00;;
73321;SDS011;61549;37.044;22.128;2023-03-19T01:45:45;5.75;;;4.50;;
73321;SDS011;61549;37.044;22.128;2023-03-19T01:48:23;5.60;;;4.95;;
73321;SDS011;61549;37.044;22.128;2023-03-19T01:50:55;17.20;;;11.18;;
73321;SDS011;61549;37.044;22.128;2023-03-19T01:55:55;6.90;;;5.53;;
73321;SDS011;61549;37.044;22.128;2023-03-19T01:58:36;7.85;;;5.65;;
73321;SDS011;61549;37.044;22.128;2023-03-19T02:01:03;7.85;;;5.30;;
73321;SDS011;61549;37.044;22.128;2023-03-19T02:03:29;6.82;;;5.47;;
73321;SDS011;61549;37.044;22.128;2023-03-19T02:05:57;9.27;;;5.72;;
73321;SDS011;61549;37.044;22.128;2023-03-19T02:08:24;6.90;;;5.22;;
73321;SDS011;61549;37.044;22.128;2023-03-19T02:10:51;7.28;;;5.25;;
73321;SDS011;61549;37.044;22.128;2023-03-19T02:13:20;8.07;;;5.65;;
73321;SDS011;61549;37.044;22.128;2023-03-19T02:15:47;9.35;;;6.07;;
73321;SDS011;61549;37.044;22.128;2023-03-19T02:18:14;7.93;;;5.93;;
73321;SDS011;61549;37.044;22.128;2023-03-19T02:20:53;7.40;;;5.50;;
73321;SDS011;61549;37.044;22.128;2023-03-19T02:26:15;6.82;;;4.97;;
73321;SDS011;61549;37.044;22.128;2023-03-19T02:28:44;8.30;;;5.40;;
73321;SDS011;61549;37.044;22.128;2023-03-19T02:33:58;6.68;;;4.63;;
73321;SDS011;61549;37.044;22.128;2023-03-19T02:36:28;6.72;;;4.68;;
73321;SDS011;61549;37.044;22.128;2023-03-19T02:39:02;6.95;;;5.35;;
73321;SDS011;61549;37.044;22.128;2023-03-19T02:44:02;6.55;;;4.40;;
73321;SDS011;61549;37.044;22.128;2023-03-19T02:46:28;5.32;;;4.50;;
73321;SDS011;61549;37.044;22.128;2023-03-19T02:48:54;7.75;;;4.80;;
73321;SDS011;61549;37.044;22.128;2023-03-19T02:51:20;6.90;;;4.35;;
73321;SDS011;61549;37.044;22.128;2023-03-19T02:53:48;4.90;;;4.05;;
73321;SDS011;61549;37.044;22.128;2023-03-19T02:56:14;7.82;;;5.28;;
73321;SDS011;61549;37.044;22.128;2023-03-19T02:58:40;6.75;;;4.32;;
73321;SDS011;61549;37.044;22.128;2023-03-19T03:01:06;7.28;;;5.18;;
73321;SDS011;61549;37.044;22.128;2023-03-19T03:03:32;8.02;;;5.28;;
73321;SDS011;61549;37.044;22.128;2023-03-19T03:05:58;6.10;;;4.30;;
73321;SDS011;61549;37.044;22.128;2023-03-19T03:08:24;6.40;;;4.65;;
73321;SDS011;61549;37.044;22.128;2023-03-19T03:10:50;9.63;;;6.13;;
73321;SDS011;61549;37.044;22.128;2023-03-19T03:13:18;8.93;;;5.68;;
73321;SDS011;61549;37.044;22.128;2023-03-19T03:15:44;6.45;;;4.65;;
73321;SDS011;61549;37.044;22.128;2023-03-19T03:18:09;5.55;;;4.72;;
73321;SDS011;61549;37.044;22.128;2023-03-19T03:20:35;6.40;;;4.35;;
73321;SDS011;61549;37.044;22.128;2023-03-19T03:25:31;5.65;;;4.15;;
73321;SDS011;61549;37.044;22.128;2023-03-19T03:27:56;5.38;;;4.13;;
73321;SDS011;61549;37.044;22.128;2023-03-19T03:30:22;5.70;;;4.15;;
73321;SDS011;61549;37.044;22.128;2023-03-19T03:32:48;4.50;;;3.65;;
73321;SDS011;61549;37.044;22.128;2023-03-19T03:35:14;6.85;;;3.70;;
73321;SDS011;61549;37.044;22.128;2023-03-19T03:37:45;4.75;;;3.60;;
73321;SDS011;61549;37.044;22.128;2023-03-19T03:40:13;4.57;;;3.80;;
73321;SDS011;61549;37.044;22.128;2023-03-19T03:42:40;5.38;;;3.75;;
73321;SDS011;61549;37.044;22.128;2023-03-19T03:45:08;5.20;;;3.70;;
73321;SDS011;61549;37.044;22.128;2023-03-19T03:47:35;4.65;;;3.47;;
73321;SDS011;61549;37.044;22.128;2023-03-19T03:50:01;4.57;;;3.53;;
73321;SDS011;61549;37.044;22.128;2023-03-19T03:52:31;4.68;;;3.42;;
73321;SDS011;61549;37.044;22.128;2023-03-19T03:54:58;4.75;;;3.53;;
73321;SDS011;61549;37.044;22.128;2023-03-19T03:57:25;4.10;;;3.35;;
73321;SDS011;61549;37.044;22.128;2023-03-19T04:02:20;5.25;;;3.60;;
73321;SDS011;61549;37.044;22.128;2023-03-19T04:04:46;4.38;;;3.47;;
73321;SDS011;61549;37.044;22.128;2023-03-19T04:07:12;3.65;;;3.20;;
73321;SDS011;61549;37.044;22.128;2023-03-19T04:09:38;4.35;;;3.58;;
73321;SDS011;61549;37.044;22.128;2023-03-19T04:12:07;3.92;;;3.17;;
73321;SDS011;61549;37.044;22.128;2023-03-19T04:14:33;4.68;;;3.55;;
73321;SDS011;61549;37.044;22.128;2023-03-19T04:16:59;4.57;;;3.30;;
73321;SDS011;61549;37.044;22.128;2023-03-19T04:19:25;4.57;;;3.50;;
73321;SDS011;61549;37.044;22.128;2023-03-19T04:21:52;4.63;;;3.55;;
73321;SDS011;61549;37.044;22.128;2023-03-19T04:24:18;4.28;;;3.22;;
73321;SDS011;61549;37.044;22.128;2023-03-19T04:26:44;4.22;;;3.25;;
73321;SDS011;61549;37.044;22.128;2023-03-19T04:29:12;4.88;;;3.50;;
73321;SDS011;61549;37.044;22.128;2023-03-19T04:31:38;4.00;;;3.13;;
73321;SDS011;61549;37.044;22.128;2023-03-19T04:34:04;4.03;;;3.35;;
73321;SDS011;61549;37.044;22.128;2023-03-19T04:36:32;5.38;;;3.80;;
73321;SDS011;61549;37.044;22.128;2023-03-19T04:38:58;4.28;;;3.42;;
73321;SDS011;61549;37.044;22.128;2023-03-19T04:41:23;3.58;;;3.22;;
73321;SDS011;61549;37.044;22.128;2023-03-19T04:43:50;3.75;;;3.33;;
73321;SDS011;61549;37.044;22.128;2023-03-19T04:46:16;3.80;;;3.20;;
73321;SDS011;61549;37.044;22.128;2023-03-19T04:48:41;3.85;;;3.08;;
73321;SDS011;61549;37.044;22.128;2023-03-19T04:51:07;4.57;;;3.35;;
73321;SDS011;61549;37.044;22.128;2023-03-19T04:53:34;4.70;;;3.50;;
73321;SDS011;61549;37.044;22.128;2023-03-19T04:56:01;3.90;;;3.15;;
73321;SDS011;61549;37.044;22.128;2023-03-19T04:58:27;7.00;;;5.10;;
73321;SDS011;61549;37.044;22.128;2023-03-19T05:00:53;7.55;;;4.20;;
73321;SDS011;61549;37.044;22.128;2023-03-19T05:03:19;7.50;;;5.05;;
73321;SDS011;61549;37.044;22.128;2023-03-19T05:05:46;4.72;;;3.72;;
73321;SDS011;61549;37.044;22.128;2023-03-19T05:08:12;8.88;;;5.85;;
73321;SDS011;61549;37.044;22.128;2023-03-19T05:10:37;5.75;;;3.92;;
73321;SDS011;61549;37.044;22.128;2023-03-19T05:13:04;5.55;;;4.32;;
73321;SDS011;61549;37.044;22.128;2023-03-19T05:15:31;6.15;;;4.43;;
73321;SDS011;61549;37.044;22.128;2023-03-19T05:17:57;4.43;;;3.60;;
73321;SDS011;61549;37.044;22.128;2023-03-19T05:20:23;5.07;;;4.00;;
73321;SDS011;61549;37.044;22.128;2023-03-19T05:22:50;4.57;;;3.80;;
73321;SDS011;61549;37.044;22.128;2023-03-19T05:25:17;4.25;;;3.50;;
73321;SDS011;61549;37.044;22.128;2023-03-19T05:27:43;6.38;;;4.40;;
73321;SDS011;61549;37.044;22.128;2023-03-19T05:30:09;4.93;;;4.00;;
73321;SDS011;61549;37.044;22.128;2023-03-19T05:32:36;5.32;;;4.00;;
73321;SDS011;61549;37.044;22.128;2023-03-19T05:35:05;4.90;;;4.03;;
73321;SDS011;61549;37.044;22.128;2023-03-19T05:37:31;7.00;;;4.85;;
73321;SDS011;61549;37.044;22.128;2023-03-19T05:40:04;7.70;;;5.25;;
73321;SDS011;61549;37.044;22.128;2023-03-19T05:42:31;6.88;;;4.82;;
73321;SDS011;61549;37.044;22.128;2023-03-19T05:44:56;5.72;;;3.83;;
73321;SDS011;61549;37.044;22.128;2023-03-19T05:47:22;5.38;;;4.43;;
73321;SDS011;61549;37.044;22.128;2023-03-19T05:49:48;5.75;;;4.75;;
73321;SDS011;61549;37.044;22.128;2023-03-19T05:52:15;5.80;;;4.57;;
73321;SDS011;61549;37.044;22.128;2023-03-19T05:54:43;6.45;;;5.10;;
73321;SDS011;61549;37.044;22.128;2023-03-19T05:57:13;6.70;;;5.63;;
73321;SDS011;61549;37.044;22.128;2023-03-19T05:59:39;8.05;;;5.57;;
73321;SDS011;61549;37.044;22.128;2023-03-19T06:02:06;7.95;;;6.20;;
73321;SDS011;61549;37.044;22.128;2023-03-19T06:04:32;8.15;;;6.28;;
73321;SDS011;61549;37.044;22.128;2023-03-19T06:06:57;7.97;;;5.10;;
73321;SDS011;61549;37.044;22.128;2023-03-19T06:09:24;6.55;;;5.40;;
73321;SDS011;61549;37.044;22.128;2023-03-19T06:11:53;8.13;;;5.50;;
73321;SDS011;61549;37.044;22.128;2023-03-19T06:14:19;6.15;;;5.03;;
73321;SDS011;61549;37.044;22.128;2023-03-19T06:16:45;6.47;;;5.55;;
73321;SDS011;61549;37.044;22.128;2023-03-19T06:19:11;5.07;;;4.47;;
73321;SDS011;61549;37.044;22.128;2023-03-19T06:21:37;5.07;;;4.00;;
73321;SDS011;61549;37.044;22.128;2023-03-19T06:24:03;5.63;;;4.25;;
73321;SDS011;61549;37.044;22.128;2023-03-19T06:26:29;5.18;;;3.97;;
73321;SDS011;61549;37.044;22.128;2023-03-19T06:28:55;4.85;;;4.18;;
73321;SDS011;61549;37.044;22.128;2023-03-19T06:31:21;5.07;;;4.40;;
73321;SDS011;61549;37.044;22.128;2023-03-19T06:33:47;5.70;;;4.40;;
73321;SDS011;61549;37.044;22.128;2023-03-19T06:36:14;5.82;;;4.60;;
73321;SDS011;61549;37.044;22.128;2023-03-19T06:38:41;8.02;;;5.82;;
73321;SDS011;61549;37.044;22.128;2023-03-19T06:41:07;8.77;;;6.22;;
73321;SDS011;61549;37.044;22.128;2023-03-19T06:43:33;9.38;;;6.13;;
73321;SDS011;61549;37.044;22.128;2023-03-19T06:46:05;7.05;;;6.10;;
73321;SDS011;61549;37.044;22.128;2023-03-19T06:48:32;6.63;;;4.72;;
73321;SDS011;61549;37.044;22.128;2023-03-19T06:50:58;8.40;;;6.45;;
73321;SDS011;61549;37.044;22.128;2023-03-19T06:53:25;7.53;;;6.03;;
73321;SDS011;61549;37.044;22.128;2023-03-19T06:55:51;5.95;;;5.05;;
73321;SDS011;61549;37.044;22.128;2023-03-19T06:58:18;7.45;;;5.60;;
73321;SDS011;61549;37.044;22.128;2023-03-19T07:00:44;7.30;;;6.10;;
73321;SDS011;61549;37.044;22.128;2023-03-19T07:03:10;8.05;;;6.60;;
73321;SDS011;61549;37.044;22.128;2023-03-19T07:05:36;8.65;;;7.35;;
73321;SDS011;61549;37.044;22.128;2023-03-19T07:08:02;10.38;;;8.23;;
73321;SDS011;61549;37.044;22.128;2023-03-19T07:10:28;8.10;;;6.80;;
73321;SDS011;61549;37.044;22.128;2023-03-19T07:12:54;8.63;;;6.38;;
73321;SDS011;61549;37.044;22.128;2023-03-19T07:15:20;7.57;;;6.20;;
73321;SDS011;61549;37.044;22.128;2023-03-19T07:17:46;7.90;;;5.78;;
73321;SDS011;61549;37.044;22.128;2023-03-19T07:20:13;6.78;;;6.07;;
73321;SDS011;61549;37.044;22.128;2023-03-19T07:22:40;7.85;;;6.10;;
73321;SDS011;61549;37.044;22.128;2023-03-19T07:25:06;7.38;;;6.40;;
73321;SDS011;61549;37.044;22.128;2023-03-19T07:27:33;6.18;;;5.57;;
73321;SDS011;61549;37.044;22.128;2023-03-19T07:29:58;7.53;;;5.38;;
73321;SDS011;61549;37.044;22.128;2023-03-19T07:32:24;9.77;;;7.40;;
73321;SDS011;61549;37.044;22.128;2023-03-19T07:34:50;8.13;;;6.00;;
73321;SDS011;61549;37.044;22.128;2023-03-19T07:37:16;7.32;;;5.95;;
73321;SDS011;61549;37.044;22.128;2023-03-19T07:39:42;8.07;;;6.70;;
73321;SDS011;61549;37.044;22.128;2023-03-19T07:42:09;7.35;;;6.22;;
73321;SDS011;61549;37.044;22.128;2023-03-19T07:44:36;7.55;;;5.95;;
73321;SDS011;61549;37.044;22.128;2023-03-19T07:47:02;6.40;;;5.20;;
73321;SDS011;61549;37.044;22.128;2023-03-19T07:49:29;7.22;;;5.78;;
73321;SDS011;61549;37.044;22.128;2023-03-19T07:51:55;6.47;;;5.22;;
73321;SDS011;61549;37.044;22.128;2023-03-19T07:54:21;8.10;;;5.82;;
73321;SDS011;61549;37.044;22.128;2023-03-19T07:56:47;7.65;;;5.88;;
73321;SDS011;61549;37.044;22.128;2023-03-19T07:59:13;6.18;;;5.00;;
73321;SDS011;61549;37.044;22.128;2023-03-19T08:01:39;8.98;;;6.50;;
73321;SDS011;61549;37.044;22.128;2023-03-19T08:04:05;8.07;;;5.72;;
73321;SDS011;61549;37.044;22.128;2023-03-19T08:06:31;5.40;;;4.72;;
73321;SDS011;61549;37.044;22.128;2023-03-19T08:08:57;6.97;;;5.22;;
73321;SDS011;61549;37.044;22.128;2023-03-19T08:11:23;7.03;;;5.10;;
73321;SDS011;61549;37.044;22.128;2023-03-19T08:13:49;5.70;;;4.80;;
73321;SDS011;61549;37.044;22.128;2023-03-19T08:16:15;7.20;;;5.63;;
73321;SDS011;61549;37.044;22.128;2023-03-19T08:21:10;7.43;;;5.10;;
73321;SDS011;61549;37.044;22.128;2023-03-19T08:23:36;6.95;;;4.75;;
73321;SDS011;61549;37.044;22.128;2023-03-19T08:26:02;7.53;;;5.22;;
73321;SDS011;61549;37.044;22.128;2023-03-19T08:28:28;7.75;;;5.35;;
73321;SDS011;61549;37.044;22.128;2023-03-19T08:30:56;7.30;;;5.90;;
73321;SDS011;61549;37.044;22.128;2023-03-19T08:33:22;17.67;;;14.82;;
73321;SDS011;61549;37.044;22.128;2023-03-19T08:35:49;5.32;;;3.92;;
73321;SDS011;61549;37.044;22.128;2023-03-19T08:38:17;4.57;;;3.47;;
73321;SDS011;61549;37.044;22.128;2023-03-19T08:43:13;3.60;;;3.17;;
73321;SDS011;61549;37.044;22.128;2023-03-19T08:45:39;4.13;;;3.00;;
73321;SDS011;61549;37.044;22.128;2023-03-19T08:48:06;3.55;;;2.72;;
73321;SDS011;61549;37.044;22.128;2023-03-19T08:50:32;4.22;;;2.92;;
73321;SDS011;61549;37.044;22.128;2023-03-19T08:52:58;5.40;;;4.22;;
73321;SDS011;61549;37.044;22.128;2023-03-19T08:55:25;5.05;;;4.20;;
73321;SDS011;61549;37.044;22.128;2023-03-19T08:57:52;5.20;;;4.07;;
73321;SDS011;61549;37.044;22.128;2023-03-19T09:00:19;4.05;;;3.50;;
73321;SDS011;61549;37.044;22.128;2023-03-19T09:02:46;5.30;;;4.80;;
73321;SDS011;61549;37.044;22.128;2023-03-19T09:05:12;6.97;;;4.82;;
73321;SDS011;61549;37.044;22.128;2023-03-19T09:07:38;6.20;;;4.97;;
73321;SDS011;61549;37.044;22.128;2023-03-19T09:10:04;8.27;;;4.65;;
73321;SDS011;61549;37.044;22.128;2023-03-19T09:12:30;5.78;;;4.65;;
73321;SDS011;61549;37.044;22.128;2023-03-19T09:14:58;5.72;;;4.22;;
73321;SDS011;61549;37.044;22.128;2023-03-19T09:17:24;5.82;;;4.57;;
73321;SDS011;61549;37.044;22.128;2023-03-19T09:19:50;4.85;;;4.30;;
73321;SDS011;61549;37.044;22.128;2023-03-19T09:22:16;5.68;;;4.50;;
73321;SDS011;61549;37.044;22.128;2023-03-19T09:24:42;6.10;;;4.63;;
73321;SDS011;61549;37.044;22.128;2023-03-19T09:27:08;5.93;;;5.10;;
73321;SDS011;61549;37.044;22.128;2023-03-19T09:29:33;7.43;;;5.75;;
73321;SDS011;61549;37.044;22.128;2023-03-19T09:32:02;7.05;;;5.60;;
73321;SDS011;61549;37.044;22.128;2023-03-19T09:34:28;7.32;;;4.88;;
73321;SDS011;61549;37.044;22.128;2023-03-19T09:36:54;6.30;;;4.88;;
73321;SDS011;61549;37.044;22.128;2023-03-19T09:39:20;8.10;;;5.28;;
73321;SDS011;61549;37.044;22.128;2023-03-19T09:44:42;8.02;;;6.28;;
73321;SDS011;61549;37.044;22.128;2023-03-19T09:49:50;7.68;;;5.90;;
73321;SDS011;61549;37.044;22.128;2023-03-19T09:57:43;8.93;;;6.40;;
73321;SDS011;61549;37.044;22.128;2023-03-19T10:00:18;7.88;;;6.10;;
73321;SDS011;61549;37.044;22.128;2023-03-19T10:05:18;7.47;;;6.10;;
73321;SDS011;61549;37.044;22.128;2023-03-19T10:13:41;7.70;;;5.65;;
73321;SDS011;61549;37.044;22.128;2023-03-19T10:16:12;9.05;;;5.60;;
73321;SDS011;61549;37.044;22.128;2023-03-19T10:18:50;7.47;;;5.40;;
73321;SDS011;61549;37.044;22.128;2023-03-19T10:21:26;6.85;;;5.32;;
73321;SDS011;61549;37.044;22.128;2023-03-19T10:24:05;7.85;;;6.05;;
73321;SDS011;61549;37.044;22.128;2023-03-19T10:26:38;11.40;;;5.97;;
73321;SDS011;61549;37.044;22.128;2023-03-19T10:29:19;4.63;;;3.92;;
73321;SDS011;61549;37.044;22.128;2023-03-19T10:31:50;6.07;;;4.82;;
73321;SDS011;61549;37.044;22.128;2023-03-19T10:37:03;5.32;;;4.22;;
73321;SDS011;61549;37.044;22.128;2023-03-19T10:39:52;5.80;;;4.25;;
73321;SDS011;61549;37.044;22.128;2023-03-19T10:47:55;4.97;;;3.60;;
73321;SDS011;61549;37.044;22.128;2023-03-19T10:50:27;5.35;;;4.35;;
73321;SDS011;61549;37.044;22.128;2023-03-19T10:56:00;7.47;;;3.72;;
73321;SDS011;61549;37.044;22.128;2023-03-19T10:58:29;4.10;;;3.35;;
73321;SDS011;61549;37.044;22.128;2023-03-19T11:01:04;4.38;;;3.15;;
73321;SDS011;61549;37.044;22.128;2023-03-19T11:03:41;5.72;;;4.10;;
73321;SDS011;61549;37.044;22.128;2023-03-19T11:09:11;5.55;;;4.40;;
73321;SDS011;61549;37.044;22.128;2023-03-19T11:11:34;4.97;;;3.92;;
73321;SDS011;61549;37.044;22.128;2023-03-19T11:14:07;4.72;;;4.00;;
73321;SDS011;61549;37.044;22.128;2023-03-19T11:16:47;5.75;;;4.57;;
73321;SDS011;61549;37.044;22.128;2023-03-19T11:19:21;4.90;;;4.20;;
73321;SDS011;61549;37.044;22.128;2023-03-19T11:22:01;4.88;;;4.00;;
73321;SDS011;61549;37.044;22.128;2023-03-19T11:24:36;4.45;;;3.85;;
73321;SDS011;61549;37.044;22.128;2023-03-19T11:27:06;5.07;;;4.30;;
73321;SDS011;61549;37.044;22.128;2023-03-19T11:29:43;7.65;;;6.05;;
73321;SDS011;61549;37.044;22.128;2023-03-19T11:34:53;5.68;;;3.92;;
73321;SDS011;61549;37.044;22.128;2023-03-19T11:42:41;7.05;;;5.03;;
73321;SDS011;61549;37.044;22.128;2023-03-19T11:50:44;4.97;;;3.92;;
73321;SDS011;61549;37.044;22.128;2023-03-19T12:04:59;5.80;;;4.43;;
73321;SDS011;61549;37.044;22.128;2023-03-19T12:08:18;6.03;;;3.97;;
73321;SDS011;61549;37.044;22.128;2023-03-19T12:16:44;6.75;;;4.38;;
73321;SDS011;61549;37.044;22.128;2023-03-19T12:22:24;6.65;;;4.40;;
73321;SDS011;61549;37.044;22.128;2023-03-19T12:28:28;5.03;;;3.80;;
73321;SDS011;61549;37.044;22.128;2023-03-19T12:33:57;5.20;;;3.50;;
73321;SDS011;61549;37.044;22.128;2023-03-19T12:36:32;7.53;;;3.90;;
73321;SDS011;61549;37.044;22.128;2023-03-19T12:39:04;6.85;;;4.13;;
73321;SDS011;61549;37.044;22.128;2023-03-19T12:41:38;5.55;;;4.20;;
73321;SDS011;61549;37.044;22.128;2023-03-19T12:46:56;5.07;;;4.10;;
73321;SDS011;61549;37.044;22.128;2023-03-19T12:49:34;5.40;;;3.70;;
73321;SDS011;61549;37.044;22.128;2023-03-19T12:52:23;6.70;;;3.95;;
73321;SDS011;61549;37.044;22.128;2023-03-19T12:57:51;4.97;;;4.07;;
73321;SDS011;61549;37.044;22.128;2023-03-19T13:08:36;7.68;;;3.95;;
73321;SDS011;61549;37.044;22.128;2023-03-19T13:11:12;4.43;;;3.90;;
73321;SDS011;61549;37.044;22.128;2023-03-19T13:13:48;7.80;;;4.30;;
73321;SDS011;61549;37.044;22.128;2023-03-19T13:16:38;5.15;;;4.43;;
73321;SDS011;61549;37.044;22.128;2023-03-19T13:19:27;8.63;;;4.85;;
73321;SDS011;61549;37.044;22.128;2023-03-19T13:22:12;5.35;;;4.10;;
73321;SDS011;61549;37.044;22.128;2023-03-19T13:24:45;9.32;;;5.28;;
73321;SDS011;61549;37.044;22.128;2023-03-19T13:27:20;6.68;;;4.28;;
73321;SDS011;61549;37.044;22.128;2023-03-19T13:32:51;7.75;;;4.13;;
73321;SDS011;61549;37.044;22.128;2023-03-19T13:35:29;7.80;;;4.03;;
73321;SDS011;61549;37.044;22.128;2023-03-19T13:38:16;11.52;;;5.38;;
73321;SDS011;61549;37.044;22.128;2023-03-19T13:40:57;8.48;;;5.22;;
73321;SDS011;61549;37.044;22.128;2023-03-19T13:45:53;8.85;;;4.97;;
73321;SDS011;61549;37.044;22.128;2023-03-19T13:48:37;9.48;;;4.90;;
73321;SDS011;61549;37.044;22.128;2023-03-19T13:51:05;10.02;;;5.47;;
73321;SDS011;61549;37.044;22.128;2023-03-19T13:56:20;8.95;;;4.43;;
73321;SDS011;61549;37.044;22.128;2023-03-19T13:59:19;11.57;;;6.63;;
73321;SDS011;61549;37.044;22.128;2023-03-19T14:01:47;11.57;;;6.97;;
73321;SDS011;61549;37.044;22.128;2023-03-19T14:04:33;17.73;;;8.35;;
73321;SDS011;61549;37.044;22.128;2023-03-19T14:07:09;14.38;;;6.32;;
73321;SDS011;61549;37.044;22.128;2023-03-19T14:09:48;6.78;;;4.00;;
73321;SDS011;61549;37.044;22.128;2023-03-19T14:12:39;8.88;;;3.80;;
73321;SDS011;61549;37.044;22.128;2023-03-19T14:20:20;7.35;;;4.15;;
73321;SDS011;61549;37.044;22.128;2023-03-19T14:28:20;8.27;;;5.88;;
73321;SDS011;61549;37.044;22.128;2023-03-19T14:31:17;6.35;;;4.63;;
73321;SDS011;61549;37.044;22.128;2023-03-19T14:36:37;8.95;;;4.60;;
73321;SDS011;61549;37.044;22.128;2023-03-19T14:39:28;6.88;;;4.80;;
73321;SDS011;61549;37.044;22.128;2023-03-19T14:45:19;12.20;;;6.65;;
73321;SDS011;61549;37.044;22.128;2023-03-19T14:48:04;13.55;;;8.70;;
73321;SDS011;61549;37.044;22.128;2023-03-19T14:56:19;10.18;;;5.60;;
73321;SDS011;61549;37.044;22.128;2023-03-19T14:58:55;6.93;;;4.55;;
73321;SDS011;61549;37.044;22.128;2023-03-19T15:01:25;8.95;;;5.30;;
73321;SDS011;61549;37.044;22.128;2023-03-19T15:03:55;7.93;;;4.70;;
73321;SDS011;61549;37.044;22.128;2023-03-19T15:06:34;8.65;;;4.40;;
73321;SDS011;61549;37.044;22.128;2023-03-19T15:09:17;6.95;;;4.82;;
73321;SDS011;61549;37.044;22.128;2023-03-19T15:12:05;8.55;;;4.45;;
73321;SDS011;61549;37.044;22.128;2023-03-19T15:14:50;7.25;;;4.75;;
73321;SDS011;61549;37.044;22.128;2023-03-19T15:17:30;10.00;;;4.80;;
73321;SDS011;61549;37.044;22.128;2023-03-19T15:19:59;8.02;;;4.60;;
73321;SDS011;61549;37.044;22.128;2023-03-19T15:22:30;6.93;;;4.38;;
73321;SDS011;61549;37.044;22.128;2023-03-19T15:25:13;6.63;;;3.90;;
73321;SDS011;61549;37.044;22.128;2023-03-19T15:27:40;6.97;;;4.20;;
73321;SDS011;61549;37.044;22.128;2023-03-19T15:30:18;7.22;;;4.15;;
73321;SDS011;61549;37.044;22.128;2023-03-19T15:32:52;6.35;;;4.20;;
73321;SDS011;61549;37.044;22.128;2023-03-19T15:35:19;8.50;;;4.40;;
73321;SDS011;61549;37.044;22.128;2023-03-19T15:37:52;5.97;;;4.22;;
73321;SDS011;61549;37.044;22.128;2023-03-19T15:40:21;7.30;;;4.43;;
73321;SDS011;61549;37.044;22.128;2023-03-19T15:42:49;6.25;;;4.00;;
73321;SDS011;61549;37.044;22.128;2023-03-19T15:45:17;6.68;;;4.30;;
73321;SDS011;61549;37.044;22.128;2023-03-19T15:47:59;5.70;;;4.35;;
73321;SDS011;61549;37.044;22.128;2023-03-19T15:50:31;5.45;;;3.90;;
73321;SDS011;61549;37.044;22.128;2023-03-19T15:53:08;5.35;;;3.95;;
73321;SDS011;61549;37.044;22.128;2023-03-19T15:55:37;6.55;;;4.07;;
73321;SDS011;61549;37.044;22.128;2023-03-19T15:58:07;5.30;;;3.90;;
73321;SDS011;61549;37.044;22.128;2023-03-19T16:00:36;7.55;;;4.32;;
73321;SDS011;61549;37.044;22.128;2023-03-19T16:03:05;6.18;;;4.40;;
73321;SDS011;61549;37.044;22.128;2023-03-19T16:05:31;10.23;;;5.22;;
73321;SDS011;61549;37.044;22.128;2023-03-19T16:07:59;7.45;;;5.38;;
73321;SDS011;61549;37.044;22.128;2023-03-19T16:12:53;9.50;;;6.75;;
73321;SDS011;61549;37.044;22.128;2023-03-19T16:17:49;11.10;;;7.15;;
73321;SDS011;61549;37.044;22.128;2023-03-19T16:20:16;8.60;;;6.28;;
73321;SDS011;61549;37.044;22.128;2023-03-19T16:22:43;15.75;;;6.80;;
73321;SDS011;61549;37.044;22.128;2023-03-19T16:25:19;10.43;;;6.70;;
73321;SDS011;61549;37.044;22.128;2023-03-19T16:27:50;9.52;;;6.32;;
73321;SDS011;61549;37.044;22.128;2023-03-19T16:30:18;8.77;;;6.68;;
73321;SDS011;61549;37.044;22.128;2023-03-19T16:32:57;8.25;;;6.25;;
73321;SDS011;61549;37.044;22.128;2023-03-19T16:35:24;8.90;;;6.90;;
73321;SDS011;61549;37.044;22.128;2023-03-19T16:38:05;11.10;;;6.72;;
73321;SDS011;61549;37.044;22.128;2023-03-19T16:41:22;9.43;;;7.35;;
73321;SDS011;61549;37.044;22.128;2023-03-19T16:43:51;9.35;;;6.70;;
73321;SDS011;61549;37.044;22.128;2023-03-19T16:46:17;9.98;;;6.72;;
73321;SDS011;61549;37.044;22.128;2023-03-19T16:48:43;18.85;;;12.32;;
73321;SDS011;61549;37.044;22.128;2023-03-19T16:51:13;12.80;;;8.57;;
73321;SDS011;61549;37.044;22.128;2023-03-19T16:53:46;11.43;;;9.00;;
73321;SDS011;61549;37.044;22.128;2023-03-19T16:56:13;21.55;;;15.95;;
73321;SDS011;61549;37.044;22.128;2023-03-19T16:58:41;18.95;;;12.50;;
73321;SDS011;61549;37.044;22.128;2023-03-19T17:01:18;17.42;;;11.93;;
73321;SDS011;61549;37.044;22.128;2023-03-19T17:03:48;15.65;;;10.25;;
73321;SDS011;61549;37.044;22.128;2023-03-19T17:06:15;12.98;;;10.13;;
73321;SDS011;61549;37.044;22.128;2023-03-19T17:08:42;13.77;;;9.50;;
73321;SDS011;61549;37.044;22.128;2023-03-19T17:14:01;13.15;;;9.63;;